Details From CYSF - Stony Rapids
To CYEK - Arviat
Flight Number -
Tags Generated
Created
Modified
Stats Distance 368 nm / 681 km
Max Altitude 0 ft / 0 m
Waypoints 2
Social Downloads 1
Likes 0
Share VATSIM

Download

Looking for another format? Having issues loading an existing format? Contact us
Advertisement - Login to hide

Notes

Generated

Route

CYSF CYEK

ID Type Via Altitude Latitude Longitude Leg Dist Tot Dist Heading (true) Name
O CYSF APT - 0 ft / 0 m 59.25236˚ -105.82838˚ - 0 nm - -
O CYEK APT - 0 ft / 0 m 61.09886˚ -94.07665˚ 367 nm 367 nm 67° / 78° -

Altitude Profile

Advertisement - Login to hide

Weather


0- 5 10 15 20 25 30 35+ Temperature / ° C

Clouds and Precipitation
Forecast for 2018-05-23 06:00 UTC. Updated 2 hours ago

Ground ~20,000 ft ~40,000 ft Winds

CYSF

Details ICAO CYSF (YSF)
Name Stony Rapids
Region Canada
Timezone America/Regina (UTC-6.0)
Stats Elevation 805 ft / 245 m (AMSL)
Location 59.250340° -105.841339°
Runways 1
Magnetic Variation 10.084° E

METAR

CYSF 230700Z AUTO 26003KT 9SM CLR 17/07 A2973 RMK SLP074 DENSITY ALT 1400FT

Decode

TAF

TAF CYSF 230539Z 2306/2318 VRB03KT P6SM SCT220 BECMG 2316/2318 28010KT RMK FCST BASED ON AUTO OBS. NXT FCST BY 231200Z

Decode

Departure Runways

ID Width Length Bearing (true) Bearing (mag) Surface Threshold Offset Overrun Length
06 98 ft / 30 m 5,055 ft / 1,541 m 253.01° 242.93° Asphalt 0 ft / 0 m 0 ft / 0 m
24 98 ft / 30 m 5,055 ft / 1,541 m 72.99° 62.91° Asphalt 0 ft / 0 m 0 ft / 0 m

CYEK

Details ICAO CYEK (YEK)
Name ARVIAT
Region Canada
Timezone America/Rankin_Inlet (UTC-5.0)
Stats Elevation 32 ft / 10 m (AMSL)
Location 61.094167° -94.070834°
Runways 1
Magnetic Variation 3.172° W

METAR

CYEK 230700Z AUTO 18026KT 9SM OVC095 M02/M04 A2993 RMK SLP139

Decode

TAF

TAF CYEK 230546Z 2306/2318 18020KT P6SM VCSH FEW010 OVC110 TEMPO 2306/2310 6SM -FZRA -PL BR BKN010 OVC070 FM231000 16025KT P6SM SCT070 BKN120 BECMG 2314/2316 17018KT RMK FCST BASED ON AUTO OBS. NXT FCST BY 231200Z

Decode

Destination Runways

ID Width Length Bearing (true) Bearing (mag) Surface Threshold Offset Overrun Length
15T 100 ft / 30 m 3,991 ft / 1,216 m 149.03° 152.20° Gravel 0 ft / 0 m 0 ft / 0 m
33T 100 ft / 30 m 3,991 ft / 1,216 m 329.05° 332.22° Gravel 0 ft / 0 m 0 ft / 0 m